createdAt,value
2024-05-09T00:00:56.709Z,15.06
2024-05-09T00:03:28.062Z,14.41
2024-05-09T00:05:58.926Z,13.18
2024-05-09T00:08:30.112Z,13.59
2024-05-09T00:11:01.036Z,13.37
2024-05-09T00:13:31.845Z,12.08
2024-05-09T00:16:05.302Z,11.51
2024-05-09T00:18:36.244Z,13.66
2024-05-09T00:21:07.821Z,13.80
2024-05-09T00:23:39.068Z,12.57
2024-05-09T00:26:09.988Z,13.01
2024-05-09T00:28:40.805Z,13.68
2024-05-09T00:31:14.288Z,13.27
2024-05-09T00:33:45.152Z,12.95
2024-05-09T00:36:16.018Z,12.79
2024-05-09T00:38:47.605Z,14.06
2024-05-09T00:41:19.764Z,13.02
2024-05-09T00:43:50.879Z,12.50
2024-05-09T00:46:24.648Z,13.30
2024-05-09T00:48:55.993Z,13.17
2024-05-09T00:51:27.105Z,14.04
2024-05-09T00:53:58.022Z,13.38
2024-05-09T00:56:29.634Z,12.97
2024-05-09T00:59:00.524Z,13.78
2024-05-09T01:01:34.846Z,13.21
2024-05-09T01:04:05.886Z,13.72
2024-05-09T01:06:36.876Z,13.52
2024-05-09T01:09:07.741Z,12.73
2024-05-09T01:11:40.865Z,12.75
2024-05-09T01:14:11.865Z,14.25
2024-05-09T01:16:45.471Z,13.17
2024-05-09T01:19:26.356Z,14.21
2024-05-09T01:21:57.450Z,13.35
2024-05-09T01:24:30.917Z,12.72
2024-05-09T01:27:01.739Z,12.88
2024-05-09T01:29:33.229Z,12.87
2024-05-09T01:32:05.056Z,12.57
2024-05-09T01:34:35.971Z,13.36
2024-05-09T01:37:07.166Z,12.86
2024-05-09T01:39:41.260Z,12.34
2024-05-09T01:42:12.021Z,12.08
2024-05-09T01:44:43.580Z,12.84
2024-05-09T01:47:14.500Z,12.67
2024-05-09T01:53:29.800Z,12.57
2024-05-09T01:56:03.462Z,13.62
2024-05-09T01:58:34.345Z,13.39
2024-05-09T02:01:05.314Z,11.93
2024-05-09T02:03:36.303Z,11.52
2024-05-09T02:06:08.109Z,14.10
2024-05-09T02:08:39.591Z,12.50
2024-05-09T02:11:13.482Z,12.36
2024-05-09T02:13:44.640Z,12.87
2024-05-09T02:16:17.044Z,13.75
2024-05-09T02:18:48.060Z,12.41
2024-05-09T02:21:18.930Z,12.04
2024-05-09T02:23:49.887Z,12.15
2024-05-09T02:26:23.561Z,13.01
2024-05-09T02:28:54.422Z,11.60
2024-05-09T02:31:25.290Z,11.96
2024-05-09T02:33:56.471Z,11.97
2024-05-09T02:36:27.488Z,12.62
2024-05-09T02:38:55.631Z,12.81
2024-05-09T02:41:30.040Z,12.37
2024-05-09T02:43:58.448Z,12.89
2024-05-09T02:46:29.353Z,11.57
2024-05-09T02:48:57.679Z,11.93
2024-05-09T02:51:28.625Z,11.91
2024-05-09T02:53:57.489Z,11.56
2024-05-09T02:56:30.968Z,12.33
2024-05-09T02:58:59.635Z,11.13
2024-05-09T03:01:30.489Z,11.43
2024-05-09T03:03:58.843Z,11.63
2024-05-09T03:06:29.760Z,12.08
2024-05-09T03:08:57.954Z,11.34
2024-05-09T03:11:31.594Z,10.94
2024-05-09T03:13:59.972Z,11.19
2024-05-09T03:16:31.193Z,11.77
2024-05-09T03:18:59.384Z,12.03
2024-05-09T03:21:30.288Z,11.50
2024-05-09T03:23:58.605Z,11.17
2024-05-09T03:26:32.165Z,10.38
2024-05-09T03:29:00.714Z,11.40
2024-05-09T03:31:32.032Z,10.69
2024-05-09T03:34:00.376Z,10.48
2024-05-09T03:36:31.387Z,10.61
2024-05-09T03:39:02.165Z,10.90
2024-05-09T03:41:35.825Z,11.14
2024-05-09T03:44:07.344Z,10.61
2024-05-09T03:46:38.240Z,10.47
2024-05-09T03:49:09.347Z,11.62
2024-05-09T03:51:37.656Z,11.97
2024-05-09T03:54:08.749Z,11.13
2024-05-09T03:56:39.945Z,11.24
2024-05-09T03:59:11.816Z,11.19
2024-05-09T04:01:40.209Z,10.49
2024-05-09T04:04:12.467Z,10.59
2024-05-09T04:06:40.931Z,10.75
2024-05-09T04:09:12.218Z,11.01
2024-05-09T04:11:43.202Z,10.77
2024-05-09T04:14:14.124Z,9.84
2024-05-09T04:16:42.815Z,11.25
2024-05-09T04:19:13.923Z,9.83
2024-05-09T04:21:42.246Z,11.33
2024-05-09T04:24:13.099Z,10.74
2024-05-09T04:26:44.013Z,9.95
2024-05-09T04:29:14.889Z,9.82
2024-05-09T04:31:43.164Z,10.61
2024-05-09T04:34:14.103Z,10.44
2024-05-09T04:36:44.570Z,10.79
2024-05-09T04:39:15.581Z,10.03
2024-05-09T04:41:46.411Z,10.10
2024-05-09T04:44:17.568Z,11.70
2024-05-09T04:46:47.063Z,9.78
2024-05-09T04:49:18.269Z,10.56
2024-05-09T04:51:46.808Z,10.05
2024-05-09T04:54:29.544Z,11.35
2024-05-09T04:57:05.062Z,9.98
2024-05-09T04:59:36.531Z,9.84
2024-05-09T05:02:05.313Z,9.91
2024-05-09T05:04:36.327Z,10.20
2024-05-09T05:07:04.923Z,9.87
2024-05-09T05:09:35.655Z,11.09
2024-05-09T05:12:27.411Z,9.86
2024-05-09T05:14:58.246Z,9.82
2024-05-09T05:17:26.578Z,10.01
2024-05-09T05:19:57.792Z,9.80
2024-05-09T05:22:28.678Z,10.49
2024-05-09T05:24:56.824Z,9.76
2024-05-09T05:27:30.994Z,11.62
2024-05-09T05:29:59.414Z,10.11
2024-05-09T05:32:30.487Z,9.84
2024-05-09T05:34:58.757Z,10.98
2024-05-09T05:37:29.646Z,9.72
2024-05-09T05:39:58.331Z,9.52
2024-05-09T05:42:31.856Z,10.08
2024-05-09T05:45:00.173Z,11.60
2024-05-09T05:47:31.156Z,9.66
2024-05-09T05:49:59.528Z,9.75
2024-05-09T05:52:30.344Z,10.26
2024-05-09T05:54:58.697Z,9.60
2024-05-09T05:57:32.135Z,8.65
2024-05-09T06:00:02.187Z,9.70
2024-05-09T06:02:43.040Z,9.84
2024-05-09T06:05:11.452Z,10.20
2024-05-09T06:07:42.330Z,9.48
2024-05-09T06:10:17.335Z,9.64
2024-05-09T06:12:55.164Z,10.63
2024-05-09T06:15:23.444Z,9.43
2024-05-09T06:17:54.473Z,9.52
2024-05-09T06:20:31.586Z,9.86
2024-05-09T06:23:07.164Z,10.55
2024-05-09T06:25:35.910Z,9.46
2024-05-09T06:28:09.857Z,9.47
2024-05-09T06:30:42.213Z,9.99
2024-05-09T06:33:16.083Z,9.86
2024-05-09T06:35:46.652Z,10.17
2024-05-09T06:38:17.593Z,9.40
2024-05-09T06:40:45.877Z,9.33
2024-05-09T06:43:20.315Z,10.79
2024-05-09T06:45:49.312Z,9.94
2024-05-09T06:48:21.841Z,9.09
2024-05-09T06:50:50.857Z,9.59
2024-05-09T06:53:24.924Z,9.52
2024-05-09T06:55:53.712Z,10.69
2024-05-09T06:58:27.209Z,11.34
2024-05-09T07:00:55.419Z,10.20
2024-05-09T07:03:26.350Z,10.65
2024-05-09T07:05:54.641Z,11.30
2024-05-09T07:08:25.569Z,11.93
2024-05-09T07:10:54.112Z,11.37
2024-05-09T07:13:28.635Z,11.82
2024-05-09T07:15:56.807Z,11.98
2024-05-09T07:18:27.840Z,12.61
2024-05-09T07:20:56.222Z,12.47
2024-05-09T07:23:27.187Z,14.63
2024-05-09T07:25:55.512Z,13.71
2024-05-09T07:28:29.003Z,13.41
2024-05-09T07:30:57.243Z,13.62
2024-05-09T07:33:28.368Z,14.25
2024-05-09T07:35:57.651Z,13.20
2024-05-09T07:38:28.515Z,13.99
2024-05-09T07:40:56.840Z,16.46
2024-05-09T07:43:30.690Z,17.35
2024-05-09T07:46:23.023Z,17.81
2024-05-09T07:53:57.156Z,18.91
2024-05-09T07:56:28.286Z,18.94
2024-05-09T07:59:01.912Z,19.94
2024-05-09T08:01:30.555Z,21.83
2024-05-09T08:04:01.572Z,21.15
2024-05-09T08:06:29.875Z,18.36
2024-05-09T08:09:05.431Z,19.45
2024-05-09T08:11:36.302Z,19.23
2024-05-09T08:14:09.760Z,19.39
2024-05-09T08:16:37.935Z,19.78
2024-05-09T08:19:08.923Z,20.44
2024-05-09T08:21:37.327Z,19.50
2024-05-09T08:24:10.546Z,21.25
2024-05-09T08:26:39.898Z,18.15
2024-05-09T08:29:13.384Z,20.07
2024-05-09T08:31:41.848Z,18.52
2024-05-09T08:34:12.856Z,19.70
2024-05-09T08:36:41.197Z,20.76
2024-05-09T08:39:11.995Z,19.31
2024-05-09T08:41:43.058Z,18.52
2024-05-09T08:44:17.030Z,19.08
2024-05-09T08:46:48.177Z,18.87
2024-05-09T08:49:19.194Z,17.87
2024-05-09T08:51:47.780Z,18.77
2024-05-09T08:54:19.888Z,18.58
2024-05-09T08:56:54.181Z,18.68
2024-05-09T08:59:34.953Z,17.84
2024-05-09T09:02:06.254Z,18.93
2024-05-09T09:04:43.230Z,17.28
2024-05-09T09:07:12.430Z,16.66
2024-05-09T09:09:46.493Z,17.29
2024-05-09T09:12:15.020Z,19.22
2024-05-09T09:14:48.578Z,17.86
2024-05-09T09:17:17.517Z,17.18
2024-05-09T09:19:48.823Z,19.00
2024-05-09T09:22:19.868Z,20.76
2024-05-09T09:24:51.573Z,23.48
2024-05-09T09:27:20.087Z,25.98
2024-05-09T09:29:54.074Z,26.93
2024-05-09T09:32:28.542Z,24.58
2024-05-09T09:34:59.401Z,26.13
2024-05-09T09:37:29.958Z,25.69
2024-05-09T09:40:03.240Z,25.34
2024-05-09T09:42:36.455Z,24.33
2024-05-09T09:45:11.006Z,24.10
2024-05-09T09:47:41.697Z,25.28
2024-05-09T09:50:17.119Z,22.53
2024-05-09T09:52:52.030Z,25.61
2024-05-09T09:55:25.365Z,22.28
2024-05-09T09:57:56.568Z,22.53
2024-05-09T10:00:33.285Z,21.88
2024-05-09T10:03:02.551Z,23.82
2024-05-09T10:05:36.589Z,21.30
2024-05-09T10:08:08.472Z,22.83
2024-05-09T10:10:39.874Z,23.38
2024-05-09T10:13:08.949Z,22.01
2024-05-09T10:15:51.124Z,21.96
2024-05-09T10:18:27.875Z,21.70
2024-05-09T10:21:01.022Z,22.05
2024-05-09T10:23:31.040Z,21.27
2024-05-09T10:26:04.806Z,20.78
2024-05-09T10:28:36.061Z,22.67
2024-05-09T10:31:14.582Z,19.82
2024-05-09T10:33:48.122Z,19.32
2024-05-09T10:36:23.112Z,20.86
2024-05-09T10:38:52.831Z,20.58
2024-05-09T10:41:25.336Z,18.81
2024-05-09T10:43:53.479Z,19.08
2024-05-09T10:46:27.383Z,19.26
2024-05-09T10:48:59.625Z,20.43
2024-05-09T10:51:32.593Z,19.61
2024-05-09T10:54:00.880Z,19.00
2024-05-09T10:56:31.763Z,20.16
2024-05-09T10:59:00.002Z,18.52
2024-05-09T11:01:34.200Z,19.38
2024-05-09T11:04:04.180Z,17.70
2024-05-09T11:06:38.217Z,20.13
2024-05-09T11:09:07.846Z,18.28
2024-05-09T11:11:38.816Z,19.08
2024-05-09T11:14:13.087Z,19.65
2024-05-09T11:16:46.542Z,19.33
2024-05-09T11:19:15.096Z,17.14
2024-05-09T11:21:46.286Z,16.76
2024-05-09T11:24:15.467Z,18.58
2024-05-09T11:26:46.256Z,17.96
2024-05-09T11:29:15.731Z,17.89
2024-05-09T11:31:51.248Z,19.07
2024-05-09T11:34:19.689Z,19.34
2024-05-09T11:36:50.679Z,19.58
2024-05-09T11:39:19.100Z,18.26
2024-05-09T11:41:49.931Z,17.77
2024-05-09T11:44:18.219Z,18.30
2024-05-09T11:46:51.839Z,17.90
2024-05-09T11:49:21.462Z,18.94
2024-05-09T11:51:53.370Z,19.51
2024-05-09T11:54:21.656Z,17.61
2024-05-09T11:56:52.614Z,16.63
2024-05-09T11:59:20.812Z,19.51
2024-05-09T12:01:54.459Z,17.56
2024-05-09T12:04:22.871Z,18.08
2024-05-09T12:06:53.936Z,20.45
2024-05-09T12:09:22.443Z,18.70
2024-05-09T12:11:53.395Z,16.48
2024-05-09T12:14:21.623Z,18.66
2024-05-09T12:16:55.154Z,17.26
2024-05-09T12:19:23.649Z,17.13
2024-05-09T12:21:54.843Z,17.75
2024-05-09T12:24:25.171Z,18.14
2024-05-09T12:26:56.059Z,18.60
2024-05-09T12:29:24.471Z,18.34
2024-05-09T12:31:58.078Z,17.34
2024-05-09T12:34:26.383Z,16.84
2024-05-09T12:36:57.527Z,17.10
2024-05-09T12:39:25.717Z,18.77
2024-05-09T12:41:56.510Z,15.74
2024-05-09T12:44:24.717Z,16.86
2024-05-09T12:46:58.210Z,16.44
2024-05-09T12:49:26.694Z,15.47
2024-05-09T12:51:57.628Z,16.68
2024-05-09T12:54:25.835Z,16.80
2024-05-09T12:56:56.871Z,15.93
2024-05-09T12:59:25.114Z,16.81
2024-05-09T13:02:00.534Z,16.99
2024-05-09T13:04:29.421Z,16.53
2024-05-09T13:07:00.400Z,16.99
2024-05-09T13:09:28.744Z,17.05
2024-05-09T13:11:59.932Z,16.67
2024-05-09T13:14:28.172Z,16.21
2024-05-09T13:17:01.866Z,14.94
2024-05-09T13:19:30.099Z,16.96
2024-05-09T13:22:00.944Z,18.35
2024-05-09T13:24:29.131Z,17.89
2024-05-09T13:27:00.020Z,16.80
2024-05-09T13:29:28.265Z,17.53
2024-05-09T13:32:01.745Z,17.63
2024-05-09T13:34:29.983Z,16.46
2024-05-09T13:37:01.523Z,16.93
2024-05-09T13:39:29.800Z,16.90
2024-05-09T13:42:00.656Z,17.36
2024-05-09T13:44:28.825Z,16.51
2024-05-09T13:47:02.433Z,17.15
2024-05-09T13:49:30.870Z,16.57
2024-05-09T13:52:01.694Z,16.99
2024-05-09T13:54:29.987Z,17.15
2024-05-09T13:57:01.440Z,16.50
2024-05-09T13:59:29.546Z,15.19
2024-05-09T14:02:03.045Z,14.36
2024-05-09T14:04:31.631Z,15.20
2024-05-09T14:07:02.725Z,16.18
2024-05-09T14:09:31.131Z,16.43
2024-05-09T14:12:02.033Z,15.58
2024-05-09T14:14:30.231Z,16.41
2024-05-09T14:17:03.955Z,15.03
2024-05-09T14:19:32.111Z,15.73
2024-05-09T14:22:06.220Z,14.82
2024-05-09T14:24:34.496Z,15.25
2024-05-09T14:27:05.406Z,16.00
2024-05-09T14:29:35.354Z,15.90
2024-05-09T14:32:09.329Z,14.72
2024-05-09T14:34:37.641Z,16.53
2024-05-09T14:37:08.739Z,15.03
2024-05-09T14:39:37.015Z,15.05
2024-05-09T14:42:08.125Z,14.22
2024-05-09T14:44:36.678Z,14.68
2024-05-09T14:47:10.775Z,15.57
2024-05-09T14:49:39.467Z,14.69
2024-05-09T14:52:10.431Z,13.43
2024-05-09T14:54:38.755Z,13.87
2024-05-09T14:57:09.622Z,14.23
2024-05-09T14:59:37.798Z,15.57
2024-05-09T15:02:11.519Z,13.47
2024-05-09T15:04:39.969Z,14.34
2024-05-09T15:07:13.154Z,14.52
2024-05-09T15:09:41.573Z,14.93
2024-05-09T15:12:12.435Z,14.47
2024-05-09T15:14:40.737Z,15.75
2024-05-09T15:17:14.255Z,17.06
2024-05-09T15:19:45.376Z,17.41
2024-05-09T15:22:16.573Z,18.27
2024-05-09T15:24:45.257Z,17.93
2024-05-09T15:27:16.280Z,18.82
2024-05-09T15:29:44.628Z,18.79
2024-05-09T15:32:18.118Z,19.28
2024-05-09T15:34:46.421Z,18.33
2024-05-09T15:37:17.749Z,18.94
2024-05-09T15:39:46.303Z,19.47
2024-05-09T15:42:17.136Z,20.79
2024-05-09T15:44:45.715Z,21.04
2024-05-09T15:47:19.197Z,21.63
2024-05-09T15:49:48.157Z,23.09
2024-05-09T15:52:20.394Z,20.98
2024-05-09T15:54:48.624Z,19.93
2024-05-09T15:57:19.594Z,21.21
2024-05-09T15:59:47.982Z,21.44
2024-05-09T16:02:21.582Z,20.98
2024-05-09T16:04:49.969Z,21.12
2024-05-09T16:07:21.978Z,21.20
2024-05-09T16:09:50.208Z,20.74
2024-05-09T16:12:21.056Z,21.20
2024-05-09T16:14:50.766Z,21.76
2024-05-09T16:17:24.452Z,21.07
2024-05-09T16:19:53.045Z,22.40
2024-05-09T16:22:24.016Z,21.15
2024-05-09T16:24:52.237Z,22.53
2024-05-09T16:27:23.024Z,21.33
2024-05-09T16:29:51.242Z,21.01
2024-05-09T16:32:24.740Z,20.31
2024-05-09T16:34:52.964Z,21.11
2024-05-09T16:37:25.890Z,22.15
2024-05-09T16:39:55.704Z,23.51
2024-05-09T16:42:26.506Z,25.07
2024-05-09T16:44:57.177Z,24.78
2024-05-09T16:47:30.840Z,26.57
2024-05-09T16:49:58.981Z,27.55
2024-05-09T16:52:29.894Z,29.78
2024-05-09T16:54:58.174Z,29.47
2024-05-09T16:57:29.434Z,30.06
2024-05-09T16:59:57.585Z,27.78
2024-05-09T17:02:31.236Z,29.77
2024-05-09T17:04:59.625Z,25.72
2024-05-09T17:07:30.792Z,27.26
2024-05-09T17:09:59.042Z,27.45
2024-05-09T17:12:30.077Z,27.24
2024-05-09T17:15:01.135Z,28.40
2024-05-09T17:17:34.880Z,31.00
2024-05-09T17:20:08.583Z,32.91
2024-05-09T17:22:40.727Z,32.59
2024-05-09T17:25:11.697Z,32.99
2024-05-09T17:27:40.422Z,34.26
2024-05-09T17:30:17.742Z,37.27
2024-05-09T17:32:54.917Z,34.61
2024-05-09T17:35:25.773Z,33.37
2024-05-09T17:37:54.345Z,32.45
2024-05-09T17:40:31.431Z,30.45
2024-05-09T17:43:04.081Z,31.30
2024-05-09T17:45:37.642Z,27.84
2024-05-09T17:48:10.364Z,29.26
2024-05-09T17:50:42.437Z,30.95
2024-05-09T17:53:11.479Z,29.45
2024-05-09T17:55:43.047Z,30.01
2024-05-09T17:58:13.019Z,28.93
2024-05-09T18:00:44.113Z,28.71
2024-05-09T18:03:15.200Z,28.39
2024-05-09T18:05:46.171Z,26.84
2024-05-09T18:08:14.576Z,26.38
2024-05-09T18:10:45.492Z,25.94
2024-05-09T18:13:14.531Z,26.47
2024-05-09T18:15:45.558Z,27.25
2024-05-09T18:18:16.644Z,27.54
2024-05-09T18:20:47.628Z,26.97
2024-05-09T18:23:18.365Z,25.63
2024-05-09T18:25:54.599Z,24.23
2024-05-09T18:28:23.622Z,23.77
2024-05-09T18:30:54.532Z,25.49
2024-05-09T18:33:25.487Z,23.78
2024-05-09T18:35:56.374Z,25.02
2024-05-09T18:38:28.086Z,26.88
2024-05-09T18:40:56.275Z,25.80
2024-05-09T18:43:31.683Z,24.18
2024-05-09T18:46:06.668Z,24.13
2024-05-09T18:48:40.424Z,24.49
2024-05-09T18:51:08.747Z,25.11
2024-05-09T18:53:40.138Z,22.49
2024-05-09T18:56:09.469Z,24.69
2024-05-09T18:58:40.261Z,25.35
2024-05-09T19:01:08.679Z,22.38
2024-05-09T19:03:42.513Z,24.97
2024-05-09T19:06:11.094Z,23.08
2024-05-09T19:08:41.887Z,23.40
2024-05-09T19:11:10.186Z,23.78
2024-05-09T19:13:41.071Z,22.48
2024-05-09T19:16:10.006Z,22.82
2024-05-09T19:18:44.703Z,23.37
2024-05-09T19:21:14.435Z,23.24
2024-05-09T19:23:50.807Z,22.45
2024-05-09T19:26:20.562Z,23.15
2024-05-09T19:28:51.357Z,21.79
2024-05-09T19:31:19.555Z,22.07
2024-05-09T19:33:54.389Z,22.15
2024-05-09T19:36:22.668Z,22.26
2024-05-09T19:38:54.049Z,21.47
2024-05-09T19:41:22.674Z,21.13
2024-05-09T19:43:53.458Z,21.19
2024-05-09T19:46:22.050Z,21.43
2024-05-09T19:48:56.044Z,19.72
2024-05-09T19:51:24.406Z,20.51
2024-05-09T19:53:55.313Z,23.30
2024-05-09T19:56:23.633Z,20.49
2024-05-09T19:58:55.228Z,21.77
2024-05-09T20:01:23.487Z,22.11
2024-05-09T20:03:59.300Z,21.40
2024-05-09T20:06:28.885Z,19.78
2024-05-09T20:08:59.800Z,20.71
2024-05-09T20:11:28.112Z,21.84
2024-05-09T20:13:59.378Z,21.54
2024-05-09T20:16:27.548Z,19.51
2024-05-09T20:19:01.276Z,20.66
2024-05-09T20:21:37.712Z,19.46
2024-05-09T20:24:09.081Z,21.17
2024-05-09T20:26:37.227Z,19.76
2024-05-09T20:29:08.383Z,18.70
2024-05-09T20:31:36.528Z,18.60
2024-05-09T20:34:10.051Z,20.00
2024-05-09T20:36:38.293Z,21.01
2024-05-09T20:39:09.176Z,20.04
2024-05-09T20:41:41.256Z,19.81
2024-05-09T20:44:12.101Z,20.36
2024-05-09T20:46:40.247Z,19.70
2024-05-09T20:49:13.877Z,17.51
2024-05-09T20:51:42.124Z,19.47
2024-05-09T20:54:12.908Z,18.78
2024-05-09T20:56:41.270Z,19.40
2024-05-09T20:59:12.271Z,17.39
2024-05-09T21:01:40.687Z,16.60
2024-05-09T21:04:14.239Z,17.06
2024-05-09T21:06:42.472Z,18.15
2024-05-09T21:09:13.287Z,17.25
2024-05-09T21:11:41.451Z,17.09
2024-05-09T21:14:12.555Z,16.85
2024-05-09T21:16:41.821Z,17.73
2024-05-09T21:19:15.550Z,17.00
2024-05-09T21:21:43.805Z,16.60
2024-05-09T21:24:14.608Z,17.52
2024-05-09T21:26:42.880Z,18.63
2024-05-09T21:29:13.638Z,15.69
2024-05-09T21:31:42.692Z,16.25
2024-05-09T21:34:16.455Z,17.52
2024-05-09T21:36:44.929Z,16.27
2024-05-09T21:39:15.732Z,16.21
2024-05-09T21:41:44.118Z,16.26
2024-05-09T21:44:15.170Z,15.85
2024-05-09T21:46:43.523Z,17.17
2024-05-09T21:49:17.960Z,15.12
2024-05-09T21:51:46.321Z,16.83
2024-05-09T21:54:23.042Z,16.96
2024-05-09T21:56:52.099Z,15.27
2024-05-09T21:59:23.175Z,15.08
2024-05-09T22:01:51.568Z,16.48
2024-05-09T22:04:25.141Z,16.02
2024-05-09T22:06:53.454Z,15.57
2024-05-09T22:09:24.325Z,15.25
2024-05-09T22:11:53.939Z,15.52
2024-05-09T22:14:25.382Z,14.16
2024-05-09T22:16:53.713Z,16.42
2024-05-09T22:19:27.408Z,16.69
2024-05-09T22:21:55.858Z,16.11
2024-05-09T22:24:27.282Z,15.71
2024-05-09T22:26:55.862Z,16.54
2024-05-09T22:29:26.649Z,15.37
2024-05-09T22:31:54.875Z,15.91
2024-05-09T22:34:29.950Z,14.94
2024-05-09T22:37:01.776Z,14.63
2024-05-09T22:39:39.627Z,15.34
2024-05-09T22:42:09.688Z,15.74
2024-05-09T22:44:40.855Z,13.61
2024-05-09T22:47:09.343Z,13.62
2024-05-09T22:49:43.147Z,14.07
2024-05-09T22:52:11.586Z,16.50
2024-05-09T22:54:42.728Z,16.61
2024-05-09T22:57:11.074Z,15.25
2024-05-09T22:59:42.033Z,16.17
2024-05-09T23:02:10.367Z,15.91
2024-05-09T23:04:44.087Z,15.71
2024-05-09T23:07:12.588Z,16.72
2024-05-09T23:09:43.555Z,13.94
2024-05-09T23:12:11.818Z,14.14
2024-05-09T23:14:42.647Z,14.77
2024-05-09T23:17:11.036Z,14.19
2024-05-09T23:19:44.546Z,14.84
2024-05-09T23:22:14.295Z,14.41
2024-05-09T23:24:45.199Z,14.54
2024-05-09T23:27:13.481Z,13.88
2024-05-09T23:29:44.321Z,13.06
2024-05-09T23:32:15.771Z,13.57
2024-05-09T23:34:49.313Z,15.49
2024-05-09T23:37:17.739Z,13.74
2024-05-09T23:39:48.680Z,12.50
2024-05-09T23:42:17.210Z,14.08
2024-05-09T23:44:48.022Z,13.54
2024-05-09T23:47:16.289Z,12.38
2024-05-09T23:49:49.884Z,13.36
2024-05-09T23:52:18.322Z,12.07
2024-05-09T23:54:49.201Z,13.85
2024-05-09T23:57:17.617Z,12.21
2024-05-09T23:59:48.530Z,11.66
